Time;durP1;ratioP1;P1;durP2;ratioP2;P2;SDS_P1;SDS_P2;PMS_P1;PMS_P2;Temp;Humidity;BMP_temperature;BMP_pressure;BME280_temperature;BME280_humidity;BME280_pressure;Samples;Min_cycle;Max_cycle;Signal;HPM_P1;HPM_P2
2022/04/11 00:00:36;;;;;;;10.10;6.47;;;;;;;;;;5086582;27;20028;-70
2022/04/11 00:03:02;;;;;;;9.60;6.53;;;;;;;;;;5107149;27;20019;-70
2022/04/11 00:05:27;;;;;;;8.93;6.13;;;;;;;;;;5105900;27;20023;-68
2022/04/11 00:07:53;;;;;;;11.38;6.70;;;;;;;;;;5104987;27;20015;-69
2022/04/11 00:10:18;;;;;;;9.15;6.53;;;;;;;;;;5121380;27;20041;-69
2022/04/11 00:12:43;;;;;;;9.57;6.88;;;;;;;;;;5123476;27;20449;-69
2022/04/11 00:15:09;;;;;;;11.13;7.38;;;;;;;;;;5106998;27;20027;-69
2022/04/11 00:17:35;;;;;;;9.57;6.35;;;;;;;;;;5122417;27;20042;-69
2022/04/11 00:20:01;;;;;;;11.23;7.70;;;;;;;;;;5105934;27;20473;-68
2022/04/11 00:22:26;;;;;;;10.70;6.88;;;;;;;;;;5104241;27;20038;-69
2022/04/11 00:24:52;;;;;;;10.13;6.50;;;;;;;;;;5121818;27;20019;-70
2022/04/11 00:27:17;;;;;;;10.25;6.03;;;;;;;;;;5122665;27;20524;-69
2022/04/11 00:29:42;;;;;;;8.90;6.40;;;;;;;;;;5123772;27;20023;-69
2022/04/11 00:32:08;;;;;;;9.20;5.93;;;;;;;;;;5129875;27;20034;-69
2022/04/11 00:34:33;;;;;;;9.65;5.82;;;;;;;;;;5106339;27;20030;-69
2022/04/11 00:36:58;;;;;;;8.15;6.15;;;;;;;;;;5123389;27;20027;-68
2022/04/11 00:39:23;;;;;;;7.93;5.80;;;;;;;;;;5124264;27;20023;-68
2022/04/11 00:41:49;;;;;;;9.38;6.10;;;;;;;;;;5101763;27;20027;-68
2022/04/11 00:44:14;;;;;;;7.45;5.65;;;;;;;;;;5107672;27;20122;-70
2022/04/11 00:46:39;;;;;;;8.80;5.68;;;;;;;;;;5124792;27;20180;-69
2022/04/11 00:49:04;;;;;;;8.32;5.82;;;;;;;;;;5107504;27;20450;-69
2022/04/11 00:51:30;;;;;;;9.18;5.20;;;;;;;;;;5122428;27;20512;-70
2022/04/11 00:53:58;;;;;;;9.55;6.43;;;;;;;;;;5104563;27;20267;-68
2022/04/11 00:56:24;;;;;;;10.18;5.97;;;;;;;;;;5104408;27;20361;-69
2022/04/11 00:58:50;;;;;;;7.75;5.80;;;;;;;;;;5125688;27;20507;-69
2022/04/11 01:01:16;;;;;;;9.60;5.65;;;;;;;;;;5090253;27;20278;-69
2022/04/11 01:03:41;;;;;;;6.88;5.47;;;;;;;;;;5124263;27;20121;-69
2022/04/11 01:06:07;;;;;;;7.68;5.72;;;;;;;;;;5122793;27;20140;-70
2022/04/11 01:08:33;;;;;;;7.80;5.32;;;;;;;;;;5104622;27;20404;-69
2022/04/11 01:10:58;;;;;;;8.45;5.30;;;;;;;;;;5085442;27;20038;-69
2022/04/11 01:13:24;;;;;;;8.50;4.70;;;;;;;;;;5089737;27;20027;-69
2022/04/11 01:15:55;;;;;;;8.07;4.80;;;;;;;;;;5122342;27;20121;-69
2022/04/11 01:18:21;;;;;;;9.98;5.07;;;;;;;;;;5124603;27;20035;-69
2022/04/11 01:20:46;;;;;;;7.97;4.85;;;;;;;;;;5101133;27;20206;-69
2022/04/11 01:23:11;;;;;;;7.15;4.88;;;;;;;;;;5124308;27;20023;-68
2022/04/11 01:25:38;;;;;;;5.88;4.57;;;;;;;;;;5099342;27;20019;-69
2022/04/11 01:28:03;;;;;;;7.78;4.85;;;;;;;;;;5089479;27;20034;-69
2022/04/11 01:30:29;;;;;;;7.68;4.78;;;;;;;;;;5104270;27;20015;-69
2022/04/11 01:32:54;;;;;;;8.18;4.70;;;;;;;;;;5105513;27;20880;-69
2022/04/11 01:35:24;;;;;;;6.07;4.63;;;;;;;;;;5124098;27;20064;-70
2022/04/11 01:37:49;;;;;;;7.22;4.35;;;;;;;;;;5102076;27;20453;-70
2022/04/11 01:40:14;;;;;;;5.75;4.22;;;;;;;;;;5100272;27;20114;-69
2022/04/11 01:42:40;;;;;;;7.63;4.78;;;;;;;;;;5122648;27;20031;-70
2022/04/11 01:45:09;;;;;;;6.80;4.25;;;;;;;;;;5104614;27;20075;-70
2022/04/11 01:47:34;;;;;;;7.35;4.32;;;;;;;;;;5105769;27;20015;-69
2022/04/11 01:49:59;;;;;;;7.20;4.25;;;;;;;;;;5087100;27;20071;-69
2022/04/11 01:52:24;;;;;;;7.72;4.97;;;;;;;;;;5103306;27;20488;-69
2022/04/11 01:54:50;;;;;;;6.78;4.43;;;;;;;;;;5124337;27;20106;-69
2022/04/11 01:57:15;;;;;;;8.43;5.15;;;;;;;;;;5088557;27;20071;-69
2022/04/11 01:59:41;;;;;;;7.00;5.03;;;;;;;;;;5106677;27;20131;-69
2022/04/11 02:02:06;;;;;;;7.32;4.47;;;;;;;;;;5094681;27;20218;-70
2022/04/11 02:04:32;;;;;;;7.40;5.10;;;;;;;;;;5129253;27;20019;-70
2022/04/11 02:06:57;;;;;;;9.20;4.82;;;;;;;;;;5124646;27;20528;-69
2022/04/11 02:09:22;;;;;;;9.80;5.07;;;;;;;;;;5126991;27;20022;-69
2022/04/11 02:11:47;;;;;;;6.43;4.75;;;;;;;;;;5125840;27;20101;-69
2022/04/11 02:14:13;;;;;;;8.93;5.03;;;;;;;;;;5129884;27;20019;-70
2022/04/11 02:16:38;;;;;;;7.88;4.55;;;;;;;;;;5127916;27;20138;-70
2022/04/11 02:19:04;;;;;;;8.50;4.55;;;;;;;;;;5128246;27;20489;-70
2022/04/11 02:21:29;;;;;;;6.63;4.75;;;;;;;;;;5127159;27;20022;-71
2022/04/11 02:23:54;;;;;;;7.03;4.53;;;;;;;;;;5126086;27;20953;-70
2022/04/11 02:26:20;;;;;;;9.13;4.93;;;;;;;;;;5126000;27;20538;-69
2022/04/11 02:28:45;;;;;;;7.05;4.72;;;;;;;;;;5107361;27;20034;-69
2022/04/11 02:31:11;;;;;;;8.50;5.05;;;;;;;;;;5126390;27;20015;-70
2022/04/11 02:33:36;;;;;;;7.90;4.47;;;;;;;;;;5108972;27;20015;-69
2022/04/11 02:36:01;;;;;;;7.50;4.75;;;;;;;;;;5105664;27;20108;-70
2022/04/11 02:38:45;;;;;;;10.68;6.10;;;;;;;;;;5108291;27;20023;-68
2022/04/11 02:41:10;;;;;;;6.93;5.05;;;;;;;;;;5106593;27;20027;-69
2022/04/11 02:43:36;;;;;;;7.65;5.25;;;;;;;;;;5108287;27;20053;-69
2022/04/11 02:46:01;;;;;;;6.97;4.93;;;;;;;;;;5124351;27;20033;-69
2022/04/11 02:48:26;;;;;;;6.93;4.95;;;;;;;;;;5108675;27;20015;-69
2022/04/11 02:50:52;;;;;;;8.63;5.13;;;;;;;;;;5123530;27;20407;-69
2022/04/11 02:53:17;;;;;;;7.15;5.00;;;;;;;;;;5108766;27;20478;-69
2022/04/11 02:55:43;;;;;;;10.18;5.20;;;;;;;;;;5102801;27;20327;-69
2022/04/11 02:58:08;;;;;;;7.93;5.38;;;;;;;;;;5090207;27;20458;-69
2022/04/11 03:00:34;;;;;;;7.65;5.03;;;;;;;;;;5125909;27;20096;-69
2022/04/11 03:02:59;;;;;;;10.38;6.95;;;;;;;;;;5108671;27;20068;-70
2022/04/11 03:05:24;;;;;;;7.10;5.70;;;;;;;;;;5144947;27;20574;-68
2022/04/11 03:07:49;;;;;;;8.52;5.85;;;;;;;;;;5123678;27;20057;-68
2022/04/11 03:10:15;;;;;;;7.35;5.28;;;;;;;;;;5109980;27;20031;-68
2022/04/11 03:12:40;;;;;;;6.38;5.07;;;;;;;;;;5108784;27;20103;-69
2022/04/11 03:15:06;;;;;;;7.95;5.55;;;;;;;;;;5106179;27;20473;-70
2022/04/11 03:17:31;;;;;;;10.32;6.35;;;;;;;;;;5144181;27;20134;-69
2022/04/11 03:19:56;;;;;;;7.45;5.90;;;;;;;;;;5126016;27;20027;-69
2022/04/11 03:22:21;;;;;;;8.38;6.40;;;;;;;;;;5124170;27;20166;-69
2022/04/11 03:24:47;;;;;;;8.45;6.07;;;;;;;;;;5101399;27;20023;-69
2022/04/11 03:27:12;;;;;;;11.85;6.40;;;;;;;;;;5087592;27;20420;-69
2022/04/11 03:29:37;;;;;;;10.10;7.03;;;;;;;;;;5126060;27;20015;-68
2022/04/11 03:32:03;;;;;;;8.60;6.60;;;;;;;;;;5088183;27;20031;-69
2022/04/11 03:34:28;;;;;;;12.55;6.95;;;;;;;;;;5124470;27;20103;-68
2022/04/11 03:36:53;;;;;;;11.38;7.90;;;;;;;;;;5100985;27;20035;-70
2022/04/11 03:39:19;;;;;;;9.43;6.20;;;;;;;;;;5122226;27;20023;-69
2022/04/11 03:41:44;;;;;;;11.43;7.07;;;;;;;;;;5103384;27;20442;-69
2022/04/11 03:44:10;;;;;;;12.50;7.07;;;;;;;;;;5105339;27;20358;-70
2022/04/11 03:46:36;;;;;;;11.43;7.25;;;;;;;;;;5124905;27;20076;-70
2022/04/11 03:49:01;;;;;;;11.02;7.80;;;;;;;;;;5105832;27;20031;-69
2022/04/11 03:51:26;;;;;;;10.88;7.60;;;;;;;;;;5123694;27;20047;-68
2022/04/11 03:53:51;;;;;;;9.15;7.30;;;;;;;;;;5086943;27;20031;-69
2022/04/11 03:56:17;;;;;;;9.00;7.03;;;;;;;;;;5088478;27;20053;-68
2022/04/11 03:58:43;;;;;;;9.43;7.07;;;;;;;;;;5125477;27;20111;-68
2022/04/11 04:01:08;;;;;;;10.35;7.72;;;;;;;;;;5121900;27;20257;-69
2022/04/11 04:03:33;;;;;;;10.50;7.57;;;;;;;;;;5111236;27;20465;-69
2022/04/11 04:05:59;;;;;;;8.88;7.95;;;;;;;;;;5102976;27;20568;-70
2022/04/11 04:08:24;;;;;;;10.65;8.00;;;;;;;;;;5125691;27;20556;-69
2022/04/11 04:10:50;;;;;;;9.68;8.20;;;;;;;;;;5101108;27;20019;-69
2022/04/11 04:13:16;;;;;;;11.50;8.07;;;;;;;;;;5089517;27;20031;-68
2022/04/11 04:15:42;;;;;;;11.23;7.85;;;;;;;;;;5124884;27;20023;-69
2022/04/11 04:18:07;;;;;;;9.95;7.95;;;;;;;;;;5122828;27;20438;-69
2022/04/11 04:20:33;;;;;;;10.95;8.38;;;;;;;;;;5104881;27;20431;-70
2022/04/11 04:22:58;;;;;;;11.63;8.00;;;;;;;;;;5103442;27;20075;-69
2022/04/11 04:25:23;;;;;;;10.10;7.95;;;;;;;;;;5083601;27;20332;-69
2022/04/11 04:27:52;;;;;;;10.88;8.30;;;;;;;;;;5105547;27;20027;-69
2022/04/11 04:30:17;;;;;;;12.52;8.05;;;;;;;;;;5104199;27;20014;-69
2022/04/11 04:32:43;;;;;;;11.40;7.90;;;;;;;;;;5130810;27;20034;-69
2022/04/11 04:35:08;;;;;;;12.43;9.43;;;;;;;;;;5122833;27;20397;-69
2022/04/11 04:37:34;;;;;;;12.88;8.95;;;;;;;;;;5141097;27;20027;-70
2022/04/11 04:39:59;;;;;;;13.32;9.32;;;;;;;;;;5121153;27;20026;-71
2022/04/11 04:42:27;;;;;;;13.88;9.30;;;;;;;;;;5140706;27;20058;-69
2022/04/11 04:44:53;;;;;;;10.93;9.10;;;;;;;;;;5143323;27;20452;-69
2022/04/11 04:47:19;;;;;;;12.30;9.15;;;;;;;;;;5108655;27;20022;-70
2022/04/11 04:49:45;;;;;;;12.10;9.98;;;;;;;;;;5107887;27;20122;-69
2022/04/11 04:52:10;;;;;;;15.38;9.65;;;;;;;;;;5119450;27;20540;-69
2022/04/11 04:54:36;;;;;;;12.60;9.27;;;;;;;;;;5133235;27;20026;-70
2022/04/11 04:57:01;;;;;;;13.20;9.73;;;;;;;;;;5098989;27;20027;-69
2022/04/11 04:59:27;;;;;;;12.60;10.10;;;;;;;;;;5108660;27;20048;-69
2022/04/11 05:01:53;;;;;;;14.63;11.15;;;;;;;;;;5144046;27;20023;-68
2022/04/11 05:04:18;;;;;;;12.88;9.98;;;;;;;;;;5122836;27;20030;-69
2022/04/11 05:06:44;;;;;;;12.30;9.85;;;;;;;;;;5122049;27;20023;-69
2022/04/11 05:09:09;;;;;;;17.67;11.30;;;;;;;;;;5121045;27;20022;-69
2022/04/11 05:11:34;;;;;;;13.95;11.23;;;;;;;;;;5140505;27;20033;-69
2022/04/11 05:13:59;;;;;;;17.15;10.73;;;;;;;;;;5142044;27;20023;-70
2022/04/11 05:16:24;;;;;;;16.30;11.85;;;;;;;;;;5125143;27;20033;-69
2022/04/11 05:18:50;;;;;;;15.63;10.40;;;;;;;;;;5122610;28;20457;-70
2022/04/11 05:21:15;;;;;;;14.82;11.23;;;;;;;;;;5085522;27;20564;-69
2022/04/11 05:23:41;;;;;;;17.98;11.57;;;;;;;;;;5123128;27;20381;-69
2022/04/11 05:26:07;;;;;;;14.73;11.25;;;;;;;;;;5102890;27;20101;-69
2022/04/11 05:28:32;;;;;;;15.40;11.82;;;;;;;;;;5128921;27;20487;-68
2022/04/11 05:30:58;;;;;;;13.07;10.82;;;;;;;;;;5110321;27;20076;-69
2022/04/11 05:33:23;;;;;;;13.77;12.23;;;;;;;;;;5111796;27;20286;-69
2022/04/11 05:35:49;;;;;;;14.73;12.23;;;;;;;;;;5108965;27;20529;-69
2022/04/11 05:38:16;;;;;;;12.82;10.68;;;;;;;;;;5128852;27;20023;-70
2022/04/11 05:40:41;;;;;;;13.45;11.32;;;;;;;;;;5125115;27;20019;-69
2022/04/11 05:43:07;;;;;;;15.93;12.98;;;;;;;;;;5128730;27;20019;-70
2022/04/11 05:45:32;;;;;;;14.65;11.77;;;;;;;;;;5129652;27;20091;-68
2022/04/11 05:47:58;;;;;;;15.07;12.77;;;;;;;;;;5130044;27;20492;-68
2022/04/11 05:50:24;;;;;;;14.25;12.57;;;;;;;;;;5110153;27;20019;-68
2022/04/11 05:52:49;;;;;;;15.38;12.60;;;;;;;;;;5090645;27;20048;-70
2022/04/11 05:55:14;;;;;;;16.10;12.68;;;;;;;;;;5122261;27;20031;-70
2022/04/11 05:57:40;;;;;;;17.30;13.15;;;;;;;;;;5107880;27;20031;-70
2022/04/11 06:00:05;;;;;;;16.35;13.13;;;;;;;;;;5106953;27;20427;-69
2022/04/11 06:02:30;;;;;;;16.27;11.95;;;;;;;;;;5107968;27;20023;-70
2022/04/11 06:04:56;;;;;;;16.48;13.38;;;;;;;;;;5107849;27;20530;-70
2022/04/11 06:07:23;;;;;;;15.23;11.98;;;;;;;;;;5085552;27;20540;-70
2022/04/11 06:09:48;;;;;;;15.57;11.95;;;;;;;;;;5105802;27;20039;-70
2022/04/11 06:12:13;;;;;;;13.95;12.13;;;;;;;;;;5121720;27;20072;-71
2022/04/11 06:14:38;;;;;;;19.63;13.68;;;;;;;;;;5107317;27;20069;-69
2022/04/11 06:17:04;;;;;;;14.73;12.57;;;;;;;;;;5087263;27;20031;-70
2022/04/11 06:19:29;;;;;;;16.13;13.55;;;;;;;;;;5090627;27;20027;-70
2022/04/11 06:21:55;;;;;;;13.98;12.05;;;;;;;;;;5123525;27;20091;-69
2022/04/11 06:24:20;;;;;;;16.05;13.20;;;;;;;;;;5122022;27;20497;-70
2022/04/11 06:26:45;;;;;;;17.48;12.50;;;;;;;;;;5104576;27;20422;-69
2022/04/11 06:29:11;;;;;;;16.65;13.23;;;;;;;;;;5123656;27;20011;-70
2022/04/11 06:31:36;;;;;;;18.88;13.65;;;;;;;;;;5107244;27;20019;-71
2022/04/11 06:34:03;;;;;;;16.88;13.52;;;;;;;;;;5124989;27;20019;-69
2022/04/11 06:36:28;;;;;;;20.05;14.15;;;;;;;;;;5105131;27;20529;-71
2022/04/11 06:38:53;;;;;;;18.33;13.80;;;;;;;;;;5121636;27;20352;-69
2022/04/11 06:41:19;;;;;;;16.60;13.20;;;;;;;;;;5102737;27;20082;-70
2022/04/11 06:43:44;;;;;;;16.10;13.90;;;;;;;;;;5106943;27;20119;-71
2022/04/11 06:46:09;;;;;;;16.17;13.00;;;;;;;;;;5105157;27;20052;-70
2022/04/11 06:48:34;;;;;;;15.27;12.30;;;;;;;;;;5125738;27;20020;-70
2022/04/11 06:50:59;;;;;;;18.88;14.65;;;;;;;;;;5105001;27;20118;-69
2022/04/11 06:53:25;;;;;;;15.30;13.68;;;;;;;;;;5105132;27;20207;-69
2022/04/11 06:55:50;;;;;;;16.73;14.90;;;;;;;;;;5086931;27;20031;-69
2022/04/11 06:58:16;;;;;;;15.55;13.98;;;;;;;;;;5105435;27;20061;-70
2022/04/11 07:00:42;;;;;;;16.55;13.60;;;;;;;;;;5125319;27;20023;-69
2022/04/11 07:03:08;;;;;;;17.85;15.27;;;;;;;;;;5126330;27;20072;-68
2022/04/11 07:05:34;;;;;;;16.00;14.32;;;;;;;;;;5106295;27;20489;-70
2022/04/11 07:08:00;;;;;;;17.80;14.15;;;;;;;;;;5107866;27;20015;-70
2022/04/11 07:10:25;;;;;;;19.38;13.40;;;;;;;;;;5103192;27;20289;-70
2022/04/11 07:12:50;;;;;;;23.60;14.63;;;;;;;;;;5126801;27;20019;-69
2022/04/11 07:15:16;;;;;;;17.55;14.70;;;;;;;;;;5105980;27;20099;-69
2022/04/11 07:17:42;;;;;;;16.00;14.23;;;;;;;;;;5106344;27;20022;-69
2022/04/11 07:20:08;;;;;;;19.15;14.57;;;;;;;;;;5124411;27;20058;-71
2022/04/11 07:22:34;;;;;;;20.90;15.40;;;;;;;;;;5087746;27;20103;-69
2022/04/11 07:25:03;;;;;;;19.83;15.57;;;;;;;;;;5105938;27;20064;-68
2022/04/11 07:27:28;;;;;;;18.70;14.15;;;;;;;;;;5104201;27;20408;-69
2022/04/11 07:29:53;;;;;;;16.38;13.93;;;;;;;;;;5090443;27;20118;-68
2022/04/11 07:32:19;;;;;;;17.60;13.80;;;;;;;;;;5114393;27;20378;-69
2022/04/11 07:34:44;;;;;;;15.48;13.57;;;;;;;;;;5145779;27;20141;-69
2022/04/11 07:37:11;;;;;;;18.10;13.88;;;;;;;;;;5121315;27;20194;-70
2022/04/11 07:39:37;;;;;;;17.40;13.82;;;;;;;;;;5142691;27;20019;-69
2022/04/11 07:42:02;;;;;;;17.30;14.45;;;;;;;;;;5143026;27;20070;-69
2022/04/11 07:44:28;;;;;;;17.30;14.43;;;;;;;;;;5124849;27;20284;-70
2022/04/11 07:46:53;;;;;;;16.75;13.32;;;;;;;;;;5117933;27;20028;-70
2022/04/11 07:49:19;;;;;;;15.48;13.95;;;;;;;;;;5122741;27;20019;-70
2022/04/11 07:51:44;;;;;;;16.80;14.00;;;;;;;;;;5103482;27;20047;-70
2022/04/11 07:54:10;;;;;;;19.20;13.73;;;;;;;;;;5084688;27;20722;-69
2022/04/11 07:56:35;;;;;;;18.52;14.07;;;;;;;;;;5103599;27;20023;-70
2022/04/11 07:59:00;;;;;;;21.75;14.70;;;;;;;;;;5121459;27;20059;-69
2022/04/11 08:01:28;;;;;;;16.73;13.90;;;;;;;;;;5084938;27;20042;-71
2022/04/11 08:03:53;;;;;;;15.70;13.88;;;;;;;;;;5125029;27;20019;-70
2022/04/11 08:06:18;;;;;;;16.75;13.73;;;;;;;;;;5100751;27;20378;-69
2022/04/11 08:08:47;;;;;;;19.23;12.90;;;;;;;;;;5103365;27;20068;-69
2022/04/11 08:11:16;;;;;;;17.17;13.70;;;;;;;;;;5131610;27;20019;-69
2022/04/11 08:13:42;;;;;;;16.23;13.00;;;;;;;;;;5145231;27;20473;-70
2022/04/11 08:16:08;;;;;;;19.80;13.77;;;;;;;;;;5126702;27;20025;-70
2022/04/11 08:18:33;;;;;;;16.45;12.02;;;;;;;;;;5124303;27;20826;-68
2022/04/11 08:20:58;;;;;;;16.52;12.68;;;;;;;;;;5124593;27;20472;-70
2022/04/11 08:23:23;;;;;;;14.63;12.35;;;;;;;;;;5124327;27;20420;-70
2022/04/11 08:25:49;;;;;;;16.88;12.52;;;;;;;;;;5105417;27;20146;-70
2022/04/11 08:28:15;;;;;;;16.45;13.23;;;;;;;;;;5125195;27;20053;-68
2022/04/11 08:30:41;;;;;;;15.20;12.55;;;;;;;;;;5126422;27;20050;-70
2022/04/11 08:33:06;;;;;;;14.23;12.68;;;;;;;;;;5125415;27;20031;-70
2022/04/11 08:35:32;;;;;;;13.80;11.75;;;;;;;;;;5142496;27;20110;-71
2022/04/11 08:37:57;;;;;;;15.40;11.07;;;;;;;;;;5124194;27;20031;-70
2022/04/11 08:40:23;;;;;;;15.57;10.82;;;;;;;;;;5121069;27;20516;-71
2022/04/11 08:42:48;;;;;;;12.65;10.35;;;;;;;;;;5144294;27;20026;-70
2022/04/11 08:45:14;;;;;;;11.48;10.07;;;;;;;;;;5143542;27;20440;-68
2022/04/11 08:47:39;;;;;;;12.95;10.95;;;;;;;;;;5107545;27;20485;-69
2022/04/11 08:50:06;;;;;;;17.08;11.55;;;;;;;;;;5123745;27;20338;-70
2022/04/11 08:52:33;;;;;;;12.10;10.90;;;;;;;;;;5084628;27;20047;-68
2022/04/11 08:54:58;;;;;;;13.05;10.68;;;;;;;;;;5105015;27;20045;-69
2022/04/11 08:57:23;;;;;;;12.35;10.35;;;;;;;;;;5084844;27;20521;-70
2022/04/11 08:59:49;;;;;;;12.40;10.30;;;;;;;;;;5124038;27;20027;-70
2022/04/11 09:02:18;;;;;;;13.52;9.93;;;;;;;;;;5086027;27;20027;-70
2022/04/11 09:05:02;;;;;;;13.27;9.82;;;;;;;;;;5105051;27;20471;-71
2022/04/11 09:07:43;;;;;;;12.57;9.40;;;;;;;;;;5121789;27;20045;-71
2022/04/11 09:10:09;;;;;;;10.88;9.43;;;;;;;;;;5144087;27;20046;-70
2022/04/11 09:12:43;;;;;;;13.52;8.57;;;;;;;;;;5105674;27;20034;-69
2022/04/11 09:15:09;;;;;;;11.10;8.65;;;;;;;;;;5124006;27;20030;-70
2022/04/11 09:17:39;;;;;;;10.23;8.05;;;;;;;;;;5121677;27;20023;-71
2022/04/11 09:20:05;;;;;;;10.55;8.32;;;;;;;;;;5106280;27;20011;-69
2022/04/11 09:22:30;;;;;;;10.73;8.75;;;;;;;;;;5123382;27;20027;-69
2022/04/11 09:25:08;;;;;;;9.55;8.38;;;;;;;;;;5144439;27;20021;-70
2022/04/11 09:27:34;;;;;;;9.45;7.55;;;;;;;;;;5124444;27;20018;-70
2022/04/11 09:29:59;;;;;;;9.45;6.90;;;;;;;;;;5127623;27;20469;-71
2022/04/11 09:32:25;;;;;;;7.38;6.53;;;;;;;;;;5125722;27;20060;-69
2022/04/11 09:34:54;;;;;;;9.00;6.85;;;;;;;;;;5127149;27;20018;-70
2022/04/11 09:37:20;;;;;;;7.00;6.10;;;;;;;;;;5144145;27;20019;-71
2022/04/11 09:39:53;;;;;;;10.25;6.63;;;;;;;;;;5123971;27;20496;-70
2022/04/11 09:42:28;;;;;;;8.48;6.53;;;;;;;;;;5142902;27;20050;-70
2022/04/11 09:44:57;;;;;;;7.68;6.63;;;;;;;;;;5147081;27;20095;-71
2022/04/11 09:47:23;;;;;;;9.38;6.18;;;;;;;;;;5124453;27;20014;-71
2022/04/11 09:49:48;;;;;;;11.02;6.45;;;;;;;;;;5145478;27;20094;-71
2022/04/11 09:52:14;;;;;;;11.32;6.22;;;;;;;;;;5127568;27;20043;-70
2022/04/11 09:54:40;;;;;;;6.40;5.38;;;;;;;;;;5140825;27;20516;-72
2022/04/11 09:57:06;;;;;;;8.43;5.75;;;;;;;;;;5122145;27;20022;-70
2022/04/11 09:59:32;;;;;;;10.77;6.40;;;;;;;;;;5142866;27;20026;-70
2022/04/11 10:01:58;;;;;;;7.90;6.15;;;;;;;;;;5124229;27;20031;-71
2022/04/11 10:04:24;;;;;;;7.13;6.05;;;;;;;;;;5132244;27;20022;-71
2022/04/11 10:06:49;;;;;;;7.65;6.10;;;;;;;;;;5107830;27;20338;-70
2022/04/11 10:09:15;;;;;;;7.43;5.85;;;;;;;;;;5141308;27;20021;-70
2022/04/11 10:11:41;;;;;;;7.38;5.18;;;;;;;;;;5138129;27;20500;-72
2022/04/11 10:14:09;;;;;;;9.85;5.88;;;;;;;;;;5145347;27;20023;-72
2022/04/11 10:16:36;;;;;;;9.18;6.20;;;;;;;;;;5144574;27;20019;-71
2022/04/11 10:19:02;;;;;;;6.60;5.90;;;;;;;;;;5147631;27;20139;-72
2022/04/11 10:21:28;;;;;;;7.75;5.90;;;;;;;;;;5108147;27;20031;-68
2022/04/11 10:23:56;;;;;;;6.95;5.90;;;;;;;;;;5147035;27;20415;-69
2022/04/11 10:26:25;;;;;;;8.35;5.68;;;;;;;;;;5125324;27;20018;-69
2022/04/11 10:28:51;;;;;;;8.13;7.03;;;;;;;;;;5128158;27;20725;-71
2022/04/11 10:31:17;;;;;;;7.90;7.07;;;;;;;;;;5111571;27;20037;-69
2022/04/11 10:33:43;;;;;;;10.18;7.97;;;;;;;;;;5147263;27;20258;-71
2022/04/11 10:36:30;;;;;;;9.15;7.22;;;;;;;;;;5146657;27;20568;-69
2022/04/11 10:39:14;;;;;;;8.43;6.43;;;;;;;;;;5125031;27;20042;-69
2022/04/11 10:41:58;;;;;;;8.18;6.43;;;;;;;;;;5103272;27;20098;-71
2022/04/11 10:44:33;;;;;;;10.27;7.18;;;;;;;;;;5125883;27;20046;-71
2022/04/11 10:47:07;;;;;;;8.85;7.95;;;;;;;;;;5107363;27;20519;-72
2022/04/11 10:49:48;;;;;;;10.18;8.43;;;;;;;;;;5124954;27;20103;-71
2022/04/11 10:52:29;;;;;;;9.50;8.10;;;;;;;;;;5124472;27;20047;-72
2022/04/11 10:54:55;;;;;;;10.63;8.25;;;;;;;;;;5105938;27;20030;-70
2022/04/11 10:57:41;;;;;;;11.00;7.88;;;;;;;;;;5087389;27;20388;-69
2022/04/11 11:00:06;;;;;;;9.75;8.50;;;;;;;;;;5124969;27;20107;-81
2022/04/11 11:02:52;;;;;;;10.55;8.90;;;;;;;;;;5135729;27;20461;-84
2022/04/11 11:05:31;;;;;;;8.88;7.90;;;;;;;;;;5129976;27;20037;-82
2022/04/11 11:08:09;;;;;;;8.85;7.40;;;;;;;;;;5129055;27;20014;-82
2022/04/11 11:10:51;;;;;;;9.05;8.05;;;;;;;;;;5126421;27;20470;-80
2022/04/11 11:13:38;;;;;;;9.73;8.40;;;;;;;;;;5147968;27;20556;-81
2022/04/11 11:16:03;;;;;;;9.48;8.15;;;;;;;;;;5147191;27;20055;-83
2022/04/11 11:18:51;;;;;;;8.93;8.07;;;;;;;;;;5152462;27;20019;-80
2022/04/11 11:21:32;;;;;;;8.23;7.32;;;;;;;;;;5133613;27;20023;-80
2022/04/11 11:24:03;;;;;;;9.90;7.28;;;;;;;;;;5147711;27;20105;-80
2022/04/11 11:26:39;;;;;;;8.30;7.53;;;;;;;;;;5142906;27;20010;-85
2022/04/11 11:29:13;;;;;;;8.15;7.28;;;;;;;;;;5148042;27;20042;-80
2022/04/11 11:31:39;;;;;;;8.50;7.55;;;;;;;;;;5126210;27;20113;-84
2022/04/11 11:34:04;;;;;;;8.15;6.75;;;;;;;;;;5108235;27;20194;-83
2022/04/11 11:36:30;;;;;;;9.07;6.68;;;;;;;;;;5110170;27;20508;-83
2022/04/11 11:38:55;;;;;;;7.82;6.63;;;;;;;;;;5115848;27;20031;-81
2022/04/11 11:41:24;;;;;;;8.80;7.20;;;;;;;;;;5108511;27;20071;-84
2022/04/11 11:43:54;;;;;;;7.32;6.57;;;;;;;;;;5126865;27;20318;-81
2022/04/11 11:46:19;;;;;;;7.85;6.80;;;;;;;;;;5135112;27;20118;-83
2022/04/11 11:48:45;;;;;;;8.20;6.75;;;;;;;;;;5126310;27;20458;-83
2022/04/11 11:51:10;;;;;;;9.13;6.78;;;;;;;;;;5126953;27;20033;-78
2022/04/11 11:53:39;;;;;;;8.27;7.47;;;;;;;;;;5125991;27;20042;-80
2022/04/11 11:56:07;;;;;;;7.97;7.18;;;;;;;;;;5125519;27;20477;-80
2022/04/11 11:58:37;;;;;;;7.35;6.50;;;;;;;;;;5125985;27;20063;-79
2022/04/11 12:01:03;;;;;;;7.80;6.85;;;;;;;;;;5126986;27;20472;-78
2022/04/11 12:06:13;;;;;;;9.68;6.95;;;;;;;;;;5145522;27;20129;-76
2022/04/11 12:08:38;;;;;;;9.23;7.00;;;;;;;;;;5127055;27;20044;-80
2022/04/11 12:11:04;;;;;;;9.30;6.55;;;;;;;;;;5109064;27;20381;-76
2022/04/11 12:13:30;;;;;;;8.60;6.70;;;;;;;;;;5128649;27;20101;-80
2022/04/11 12:16:06;;;;;;;8.70;7.32;;;;;;;;;;5127263;27;20030;-78
2022/04/11 12:18:45;;;;;;;7.78;6.93;;;;;;;;;;5125470;27;20021;-78
2022/04/11 12:21:11;;;;;;;8.63;6.65;;;;;;;;;;5145301;27;20019;-81
2022/04/11 12:23:43;;;;;;;7.60;6.38;;;;;;;;;;5144081;27;20023;-77
2022/04/11 12:26:08;;;;;;;7.25;6.53;;;;;;;;;;5125053;27;20042;-78
2022/04/11 12:28:34;;;;;;;8.02;6.47;;;;;;;;;;5126242;27;20521;-78
2022/04/11 12:31:03;;;;;;;8.43;7.50;;;;;;;;;;5108909;27;20029;-78
2022/04/11 12:33:28;;;;;;;8.80;7.90;;;;;;;;;;5113733;27;20456;-79
2022/04/11 12:36:10;;;;;;;8.43;7.35;;;;;;;;;;5120987;27;20027;-77
2022/04/11 12:38:43;;;;;;;11.57;7.05;;;;;;;;;;5104013;27;20122;-79
2022/04/11 12:41:35;;;;;;;9.02;7.88;;;;;;;;;;5122857;27;20035;-78
2022/04/11 12:44:00;;;;;;;8.35;7.18;;;;;;;;;;5074266;27;20023;-79
2022/04/11 12:46:26;;;;;;;8.60;7.55;;;;;;;;;;5110327;27;20018;-77
2022/04/11 12:48:57;;;;;;;10.65;8.07;;;;;;;;;;5127356;27;20454;-77
2022/04/11 12:51:23;;;;;;;10.20;8.05;;;;;;;;;;5145911;27;20014;-77
2022/04/11 12:53:48;;;;;;;9.60;7.60;;;;;;;;;;5125676;27;20047;-78
2022/04/11 12:56:13;;;;;;;8.10;7.30;;;;;;;;;;5143670;27;20019;-79
2022/04/11 12:58:39;;;;;;;10.13;8.00;;;;;;;;;;5126434;27;20426;-77
2022/04/11 13:01:04;;;;;;;9.70;7.40;;;;;;;;;;5145694;27;20643;-77
2022/04/11 13:03:30;;;;;;;10.07;7.68;;;;;;;;;;5129763;27;20023;-78
2022/04/11 13:05:57;;;;;;;7.82;7.13;;;;;;;;;;5104006;27;20664;-77
2022/04/11 13:08:24;;;;;;;9.88;7.57;;;;;;;;;;5124688;27;20114;-78
2022/04/11 13:10:49;;;;;;;8.70;7.20;;;;;;;;;;5120506;27;20122;-76
2022/04/11 13:13:14;;;;;;;11.65;6.97;;;;;;;;;;5105918;28;20098;-78
2022/04/11 13:18:23;;;;;;;7.75;6.97;;;;;;;;;;5104803;28;20157;-78
2022/04/11 13:18:26;;;;;;;8.18;7.28;;;;;;;;;;5147585;27;20481;-78
2022/04/11 13:20:51;;;;;;;8.27;6.72;;;;;;;;;;5139597;27;20136;-76
2022/04/11 13:23:16;;;;;;;9.18;7.00;;;;;;;;;;5109282;27;20117;-80
2022/04/11 13:25:42;;;;;;;9.25;7.20;;;;;;;;;;5121454;27;20026;-77
2022/04/11 13:28:09;;;;;;;8.05;7.20;;;;;;;;;;5108846;27;20019;-77
2022/04/11 13:30:34;;;;;;;10.43;8.38;;;;;;;;;;5127447;27;20023;-78
2022/04/11 13:33:00;;;;;;;9.90;8.00;;;;;;;;;;5103985;27;20391;-78
2022/04/11 13:35:25;;;;;;;9.65;8.02;;;;;;;;;;5121312;27;20018;-76
2022/04/11 13:37:50;;;;;;;8.25;6.72;;;;;;;;;;5112751;27;20453;-78
2022/04/11 13:40:16;;;;;;;9.02;6.90;;;;;;;;;;5083471;27;20065;-77
2022/04/11 13:42:42;;;;;;;11.32;6.82;;;;;;;;;;5105771;27;20107;-78
2022/04/11 13:45:08;;;;;;;8.77;7.38;;;;;;;;;;5088003;27;20091;-76
2022/04/11 13:47:33;;;;;;;8.85;7.43;;;;;;;;;;5101556;27;20027;-75
2022/04/11 13:49:58;;;;;;;8.13;7.40;;;;;;;;;;5127925;27;20102;-75
2022/04/11 13:52:24;;;;;;;9.75;7.38;;;;;;;;;;5122571;27;20044;-77
2022/04/11 13:54:49;;;;;;;8.70;6.90;;;;;;;;;;5125535;27;20494;-77
2022/04/11 13:57:14;;;;;;;10.43;7.05;;;;;;;;;;5143765;27;20034;-78
2022/04/11 13:59:41;;;;;;;12.48;7.00;;;;;;;;;;5126756;27;20362;-76
2022/04/11 14:02:10;;;;;;;7.88;7.05;;;;;;;;;;5089780;27;20140;-76
2022/04/11 14:04:36;;;;;;;7.50;6.80;;;;;;;;;;5111711;27;20046;-78
2022/04/11 14:07:01;;;;;;;9.18;6.93;;;;;;;;;;5101604;27;20583;-78
2022/04/11 14:09:26;;;;;;;9.93;7.78;;;;;;;;;;5108963;27;20433;-78
2022/04/11 14:11:52;;;;;;;10.30;6.85;;;;;;;;;;5105710;27;20027;-78
2022/04/11 14:14:17;;;;;;;8.38;6.68;;;;;;;;;;5128922;27;20015;-76
2022/04/11 14:16:44;;;;;;;9.70;6.72;;;;;;;;;;5108700;27;20041;-78
2022/04/11 14:19:09;;;;;;;7.72;6.95;;;;;;;;;;5091985;27;20062;-78
2022/04/11 14:21:34;;;;;;;10.00;7.45;;;;;;;;;;5125759;27;20059;-79
2022/04/11 14:24:00;;;;;;;8.68;7.05;;;;;;;;;;5106643;27;20019;-78
2022/04/11 14:26:25;;;;;;;9.15;7.25;;;;;;;;;;5126724;27;20102;-78
2022/04/11 14:28:50;;;;;;;11.35;7.07;;;;;;;;;;5110369;27;20026;-78
2022/04/11 14:31:16;;;;;;;8.77;7.07;;;;;;;;;;5108615;27;20027;-75
2022/04/11 14:33:42;;;;;;;7.90;7.10;;;;;;;;;;5129490;27;20086;-79